Time;durP1;ratioP1;P1;durP2;ratioP2;P2;SDS_P1;SDS_P2;PMS_P1;PMS_P2;Temp;Humidity;BMP_temperature;BMP_pressure;BME280_temperature;BME280_humidity;BME280_pressure;Samples;Min_cycle;Max_cycle;Signal;HPM_P1;HPM_P2
2021/07/08 00:02:14;;;;;;;3.90;2.40;;;15.40;99.90;;;;;;4955097;28;20091;-91
2021/07/08 00:05:07;;;;;;;7.10;2.70;;;15.40;99.90;;;;;;4955779;28;20062;-90
2021/07/08 00:07:59;;;;;;;4.50;2.90;;;15.40;99.90;;;;;;4940068;28;20155;-89
2021/07/08 00:10:50;;;;;;;5.53;2.70;;;15.40;99.90;;;;;;4945235;28;20043;-89
2021/07/08 00:13:38;;;;;;;4.50;2.60;;;15.40;99.90;;;;;;4956554;28;20520;-88
2021/07/08 00:16:25;;;;;;;4.05;2.35;;;15.40;99.90;;;;;;4939902;28;20066;-90
2021/07/08 00:19:12;;;;;;;4.82;2.58;;;15.50;99.90;;;;;;4945544;28;20133;-89
2021/07/08 00:22:00;;;;;;;2.72;2.53;;;15.50;99.90;;;;;;4954769;28;20110;-89
2021/07/08 00:24:49;;;;;;;5.85;2.50;;;15.50;99.90;;;;;;4949337;28;20106;-88
2021/07/08 00:27:36;;;;;;;4.80;2.13;;;15.50;99.90;;;;;;4949832;28;20059;-90
2021/07/08 00:30:24;;;;;;;9.05;2.47;;;15.50;99.90;;;;;;4944433;28;20177;-90
2021/07/08 00:33:12;;;;;;;4.78;2.20;;;15.40;99.90;;;;;;4949246;29;20519;-90
2021/07/08 00:36:00;;;;;;;8.02;2.70;;;15.40;99.90;;;;;;4948476;28;20047;-89
2021/07/08 00:38:47;;;;;;;4.50;2.50;;;15.40;99.90;;;;;;4952494;29;20133;-90
2021/07/08 00:41:35;;;;;;;8.45;2.50;;;15.40;99.90;;;;;;4936320;28;20548;-88
2021/07/08 00:44:22;;;;;;;7.05;3.10;;;15.40;99.90;;;;;;4960927;28;20158;-89
2021/07/08 00:47:10;;;;;;;6.35;3.60;;;15.40;99.90;;;;;;4933700;28;20069;-88
2021/07/08 00:49:57;;;;;;;6.65;3.63;;;15.40;99.90;;;;;;4951693;28;20144;-89
2021/07/08 00:52:44;;;;;;;9.85;3.50;;;15.30;99.90;;;;;;4956827;28;20117;-88
2021/07/08 00:55:33;;;;;;;3.92;3.20;;;15.30;99.90;;;;;;4937849;29;20145;-88
2021/07/08 00:58:20;;;;;;;4.15;3.33;;;15.30;99.90;;;;;;4939096;29;20051;-90
2021/07/08 01:01:10;;;;;;;4.38;3.45;;;15.30;99.90;;;;;;4952722;28;20186;-91
2021/07/08 01:03:59;;;;;;;5.65;3.75;;;15.30;99.90;;;;;;4936992;29;20051;-90
2021/07/08 01:06:47;;;;;;;5.15;3.30;;;15.30;99.90;;;;;;4936853;28;20203;-89
2021/07/08 01:09:34;;;;;;;5.00;2.97;;;15.30;99.90;;;;;;4952645;28;20086;-89
2021/07/08 01:12:21;;;;;;;5.47;3.28;;;15.30;99.90;;;;;;4945244;28;20527;-89
2021/07/08 01:15:11;;;;;;;12.10;4.00;;;15.20;99.90;;;;;;4957828;28;20054;-88
2021/07/08 01:17:58;;;;;;;5.75;3.90;;;15.10;99.90;;;;;;4949184;29;20136;-88
2021/07/08 01:20:48;;;;;;;10.82;4.00;;;15.10;99.90;;;;;;4948302;28;20051;-88
2021/07/08 01:23:35;;;;;;;8.40;3.90;;;15.10;99.90;;;;;;4947997;29;20058;-88
2021/07/08 01:26:23;;;;;;;7.90;3.78;;;15.00;99.90;;;;;;4952577;28;20094;-88
2021/07/08 01:29:11;;;;;;;7.05;3.90;;;15.10;99.90;;;;;;4961700;28;20047;-89
2021/07/08 01:31:59;;;;;;;6.38;3.83;;;15.00;99.90;;;;;;4955663;29;20183;-87
2021/07/08 01:34:46;;;;;;;11.68;4.47;;;15.00;99.90;;;;;;4962777;28;20054;-89
2021/07/08 01:37:34;;;;;;;7.00;4.38;;;15.10;99.90;;;;;;4950764;28;20078;-89
2021/07/08 01:40:21;;;;;;;10.00;5.28;;;15.10;99.90;;;;;;4957058;28;20481;-89
2021/07/08 01:43:08;;;;;;;8.32;5.15;;;15.10;99.90;;;;;;4942707;29;20043;-89
2021/07/08 01:45:56;;;;;;;9.40;5.20;;;15.10;99.90;;;;;;4942918;28;20106;-89
2021/07/08 01:48:45;;;;;;;13.00;6.05;;;15.10;99.90;;;;;;4961180;28;20054;-89
2021/07/08 01:51:34;;;;;;;7.70;5.68;;;15.10;99.90;;;;;;4964979;28;20444;-89
2021/07/08 01:54:22;;;;;;;8.43;5.45;;;15.10;99.90;;;;;;4954933;28;20047;-89
2021/07/08 01:57:10;;;;;;;7.47;5.60;;;15.10;99.90;;;;;;4957225;28;20138;-89
2021/07/08 01:59:57;;;;;;;13.73;6.07;;;15.10;99.90;;;;;;4955424;28;20047;-89
2021/07/08 02:02:45;;;;;;;13.90;5.97;;;15.10;99.90;;;;;;4954244;28;20129;-89
2021/07/08 02:09:51;;;;;;;14.73;6.75;;;15.00;99.90;;;;;;4958050;28;20046;-88
2021/07/08 02:12:39;;;;;;;10.85;6.85;;;15.00;99.90;;;;;;4960401;28;20105;-90
2021/07/08 02:15:26;;;;;;;13.82;6.38;;;15.00;99.90;;;;;;4948162;28;20107;-88
2021/07/08 02:18:13;;;;;;;9.48;6.32;;;15.00;99.90;;;;;;4941524;28;20173;-87
2021/07/08 02:21:01;;;;;;;18.50;6.93;;;14.90;99.90;;;;;;4964724;28;20075;-89
2021/07/08 02:23:49;;;;;;;12.88;6.97;;;15.00;99.90;;;;;;4954509;29;20058;-88
2021/07/08 02:26:37;;;;;;;19.00;8.98;;;14.90;99.90;;;;;;4951793;28;20138;-90
2021/07/08 02:29:27;;;;;;;13.20;8.55;;;15.00;99.90;;;;;;4950038;28;20198;-90
2021/07/08 02:32:15;;;;;;;15.10;9.73;;;15.00;99.90;;;;;;4947395;29;20134;-90
2021/07/08 02:35:07;;;;;;;18.30;9.40;;;15.00;99.90;;;;;;4947511;28;20087;-89
2021/07/08 02:37:55;;;;;;;11.73;8.82;;;15.00;99.90;;;;;;4953663;28;20047;-89
2021/07/08 02:40:43;;;;;;;14.85;8.35;;;15.00;99.90;;;;;;4944437;29;20093;-88
2021/07/08 02:43:33;;;;;;;15.73;8.60;;;15.00;99.90;;;;;;4935727;29;20056;-90
2021/07/08 02:46:20;;;;;;;14.70;9.25;;;15.00;99.90;;;;;;4939476;29;20055;-89
2021/07/08 02:49:10;;;;;;;19.38;8.68;;;15.00;99.90;;;;;;4932122;29;20441;-90
2021/07/08 02:51:57;;;;;;;11.57;7.60;;;15.00;99.90;;;;;;4936971;28;20052;-88
2021/07/08 02:54:44;;;;;;;14.00;7.50;;;15.00;99.90;;;;;;4927680;29;20169;-89
2021/07/08 02:57:31;;;;;;;12.20;9.30;;;15.00;99.90;;;;;;4948651;28;20126;-89
2021/07/08 03:00:24;;;;;;;16.77;8.95;;;15.10;99.90;;;;;;4937289;29;20379;-89
2021/07/08 03:03:11;;;;;;;15.20;8.60;;;15.00;99.90;;;;;;4951604;28;20059;-90
2021/07/08 03:05:59;;;;;;;13.95;9.13;;;15.00;99.90;;;;;;4952850;28;20384;-89
2021/07/08 03:08:46;;;;;;;12.13;8.23;;;15.10;99.90;;;;;;4950263;28;20043;-89
2021/07/08 03:11:33;;;;;;;12.98;8.50;;;15.10;99.90;;;;;;4943102;29;20181;-89
2021/07/08 03:14:21;;;;;;;11.50;7.70;;;15.00;99.90;;;;;;4951910;28;20134;-89
2021/07/08 03:17:09;;;;;;;15.90;8.43;;;15.00;99.90;;;;;;4937183;28;20056;-89
2021/07/08 03:19:56;;;;;;;10.60;7.68;;;15.00;99.90;;;;;;4958498;28;20047;-89
2021/07/08 03:22:45;;;;;;;14.50;7.28;;;15.00;99.90;;;;;;4951829;28;20053;-90
2021/07/08 03:25:33;;;;;;;12.30;7.05;;;15.00;99.90;;;;;;4945071;28;20141;-88
2021/07/08 03:28:21;;;;;;;11.38;6.90;;;15.00;99.90;;;;;;4953527;29;20062;-90
2021/07/08 03:31:08;;;;;;;10.65;6.63;;;15.00;99.90;;;;;;4950752;28;20186;-89
2021/07/08 03:33:55;;;;;;;15.93;7.13;;;15.00;99.90;;;;;;4946508;28;20054;-88
2021/07/08 03:36:43;;;;;;;10.55;6.82;;;15.00;99.90;;;;;;4954542;28;20122;-89
2021/07/08 03:39:31;;;;;;;11.63;6.25;;;15.10;99.90;;;;;;4951870;28;20114;-89
2021/07/08 03:42:19;;;;;;;14.65;6.65;;;15.00;99.90;;;;;;4944939;29;20109;-88
2021/07/08 03:45:08;;;;;;;11.30;6.93;;;15.00;99.90;;;;;;4944772;29;20036;-89
2021/07/08 04:16:34;;;;;;;18.98;9.57;;;14.90;99.90;;;;;;4909582;29;20038;-89
2021/07/08 04:19:22;;;;;;;14.45;9.70;;;14.90;99.90;;;;;;4918742;29;20048;-89
2021/07/08 04:22:09;;;;;;;11.50;8.93;;;14.90;99.90;;;;;;4949142;28;20055;-89
2021/07/08 04:24:56;;;;;;;13.93;8.80;;;15.00;99.90;;;;;;4935133;29;20167;-91
2021/07/08 04:27:44;;;;;;;17.95;8.95;;;15.00;99.90;;;;;;4943797;28;20122;-90
2021/07/08 04:30:33;;;;;;;14.77;9.65;;;15.00;99.90;;;;;;4949911;29;20043;-89
2021/07/08 04:33:20;;;;;;;19.15;10.88;;;15.10;99.90;;;;;;4940587;29;20043;-90
2021/07/08 04:36:11;;;;;;;13.95;10.20;;;15.10;99.90;;;;;;4943737;28;20155;-91
2021/07/08 04:39:00;;;;;;;13.77;9.27;;;15.10;99.90;;;;;;4938811;29;20502;-90
2021/07/08 04:41:49;;;;;;;11.98;8.85;;;15.10;99.90;;;;;;4951398;29;20055;-89
2021/07/08 04:44:37;;;;;;;8.55;7.40;;;15.10;99.90;;;;;;4949069;28;20129;-89
2021/07/08 04:47:24;;;;;;;7.93;6.70;;;15.10;99.90;;;;;;4951846;28;20043;-89
2021/07/08 04:50:19;;;;;;;9.27;7.47;;;15.10;99.90;;;;;;4947892;29;20138;-90
2021/07/08 04:53:07;;;;;;;13.25;7.10;;;15.10;99.90;;;;;;4940899;28;20047;-89
2021/07/08 04:55:56;;;;;;;11.38;8.38;;;15.10;99.90;;;;;;4950855;29;20374;-90
2021/07/08 04:58:44;;;;;;;13.57;8.57;;;15.20;99.90;;;;;;4946384;29;20059;-87
2021/07/08 05:01:31;;;;;;;15.98;7.47;;;15.20;99.90;;;;;;4948704;28;20295;-89
2021/07/08 05:04:18;;;;;;;11.98;7.03;;;15.10;99.90;;;;;;4959600;28;20047;-90
2021/07/08 05:07:07;;;;;;;10.18;7.10;;;15.20;99.90;;;;;;4948063;28;20055;-89
2021/07/08 05:09:57;;;;;;;12.85;9.07;;;15.10;99.90;;;;;;4941963;28;20103;-89
2021/07/08 05:12:47;;;;;;;14.75;10.18;;;15.10;99.90;;;;;;4946913;28;20134;-87
2021/07/08 05:15:36;;;;;;;18.58;10.02;;;15.10;99.90;;;;;;4955412;28;20106;-90
2021/07/08 05:18:24;;;;;;;12.38;9.05;;;15.20;99.90;;;;;;4944226;29;20126;-89
2021/07/08 05:21:11;;;;;;;13.90;7.82;;;15.20;99.90;;;;;;4956359;28;20098;-88
2021/07/08 05:24:01;;;;;;;14.05;7.00;;;15.30;99.90;;;;;;4945543;28;20048;-90
2021/07/08 05:26:49;;;;;;;9.82;6.38;;;15.30;99.90;;;;;;4945809;28;20127;-90
2021/07/08 05:29:36;;;;;;;10.88;6.70;;;15.30;99.90;;;;;;4952335;28;20528;-90
2021/07/08 05:32:23;;;;;;;8.68;6.20;;;15.40;99.90;;;;;;4943143;29;20559;-90
2021/07/08 05:35:11;;;;;;;11.40;6.38;;;15.50;99.90;;;;;;4947342;28;20043;-90
2021/07/08 05:37:59;;;;;;;12.20;6.45;;;15.60;99.90;;;;;;4944961;28;20204;-90
2021/07/08 05:40:47;;;;;;;6.97;6.25;;;15.70;99.90;;;;;;4940667;28;20043;-88
2021/07/08 05:43:34;;;;;;;8.48;6.65;;;15.70;99.90;;;;;;4955506;29;20179;-92
2021/07/08 05:46:22;;;;;;;9.13;6.60;;;15.70;99.90;;;;;;4953786;29;20126;-92
2021/07/08 05:49:09;;;;;;;9.85;6.35;;;15.70;99.90;;;;;;4955219;28;20043;-90
2021/07/08 05:51:56;;;;;;;8.60;5.97;;;15.70;99.90;;;;;;4945177;29;20157;-89
2021/07/08 05:54:44;;;;;;;8.05;6.20;;;15.70;99.90;;;;;;4953619;29;20047;-91
2021/07/08 05:57:31;;;;;;;8.55;5.47;;;15.80;99.90;;;;;;4956444;28;20448;-88
2021/07/08 06:00:20;;;;;;;5.38;4.78;;;15.80;99.90;;;;;;4955097;29;20044;-88
2021/07/08 06:03:10;;;;;;;7.82;4.82;;;15.90;99.90;;;;;;4957629;28;20118;-89
2021/07/08 06:05:59;;;;;;;8.20;4.75;;;16.00;99.90;;;;;;4955012;28;20110;-88
2021/07/08 06:08:49;;;;;;;6.60;4.40;;;16.10;99.90;;;;;;4943579;28;20059;-90
2021/07/08 06:11:37;;;;;;;4.75;4.05;;;16.10;99.90;;;;;;4950373;28;20048;-94
2021/07/08 06:14:24;;;;;;;8.70;4.72;;;16.20;99.90;;;;;;4956459;28;20040;-93
2021/07/08 06:17:12;;;;;;;5.28;3.58;;;16.30;99.90;;;;;;4961772;28;20038;-93
2021/07/08 06:20:01;;;;;;;5.97;3.88;;;16.30;99.90;;;;;;4959982;28;20101;-91
2021/07/08 06:22:49;;;;;;;7.88;3.90;;;16.30;99.90;;;;;;4942142;29;20074;-92
2021/07/08 06:25:37;;;;;;;4.40;3.28;;;16.30;99.90;;;;;;4950767;28;20109;-92
2021/07/08 06:35:48;;;;;;;7.20;3.25;;;16.30;99.90;;;;;;5582494;23;20023;-88
2021/07/08 06:38:52;;;;;;;6.38;3.55;;;16.30;99.90;;;;;;4946727;28;20043;-86
2021/07/08 06:41:54;;;;;;;6.63;3.45;;;16.20;99.90;;;;;;4937034;29;20050;-87
2021/07/08 06:44:45;;;;;;;6.53;3.20;;;16.30;99.90;;;;;;4934749;29;20040;-87
2021/07/08 06:47:40;;;;;;;3.55;2.80;;;16.30;99.90;;;;;;4936968;29;20083;-87
2021/07/08 06:50:33;;;;;;;5.60;3.35;;;16.40;99.90;;;;;;4928773;29;20043;-88
2021/07/08 06:53:30;;;;;;;5.30;3.72;;;16.50;99.90;;;;;;4929971;29;20102;-87
2021/07/08 06:56:23;;;;;;;7.90;3.58;;;16.70;99.90;;;;;;4949762;29;20043;-87
2021/07/08 06:59:11;;;;;;;7.38;4.32;;;16.90;99.90;;;;;;4938513;29;20055;-87
2021/07/08 07:02:05;;;;;;;4.50;3.30;;;17.10;99.90;;;;;;4946525;29;20054;-87
2021/07/08 07:05:00;;;;;;;5.55;2.80;;;17.30;99.90;;;;;;4922419;29;20044;-87
2021/07/08 07:08:38;;;;;;;;;;;;;;;;;;;;;
2021/07/08 07:11:47;;;;;;;5.30;2.50;;;17.70;99.90;;;;;;4896251;29;20474;-87
2021/07/08 07:14:45;;;;;;;;;;;;;;;;;;;;;
2021/07/08 07:17:57;;;;;;;;;;;;;;;;;;;;;
2021/07/08 07:21:09;;;;;;;7.78;2.55;;;18.00;99.90;;;;;;4829988;29;20046;-86
2021/07/08 07:24:21;;;;;;;8.20;2.97;;;18.20;99.90;;;;;;4823974;29;20095;-88
2021/07/08 07:35:27;;;;;;;5.32;2.50;;;18.40;99.90;;;;;;4765677;30;20103;-88
2021/07/08 07:38:17;;;;;;;;;;;;;;;;;;;;;
2021/07/08 07:41:24;;;;;;;4.28;2.28;;;18.70;99.90;;;;;;4804293;29;20058;-88
2021/07/08 07:44:35;;;;;;;7.90;2.50;;;18.60;99.90;;;;;;4827085;29;20053;-88
2021/07/08 07:48:08;;;;;;;6.50;2.72;;;18.40;99.90;;;;;;4877193;29;20064;-89
2021/07/08 07:51:28;;;;;;;4.32;2.40;;;18.40;99.90;;;;;;4882366;29;20128;-90
2021/07/08 08:01:45;;;;;;;3.92;2.00;;;18.40;99.90;;;;;;4943173;28;20079;-88
2021/07/08 08:08:38;;;;;;;7.50;2.45;;;18.90;99.90;;;;;;4906027;29;20037;-88
2021/07/08 08:11:51;;;;;;;3.63;2.00;;;19.30;99.90;;;;;;4842089;29;20046;-88
2021/07/08 08:14:40;;;;;;;5.20;2.40;;;19.40;99.90;;;;;;4895144;29;20406;-88
2021/07/08 08:17:33;;;;;;;8.95;2.20;;;19.40;99.90;;;;;;4900884;29;20056;-89
2021/07/08 08:21:24;;;;;;;2.92;1.95;;;19.50;99.90;;;;;;4829883;29;20632;-89
2021/07/08 08:24:54;;;;;;;;;;;;;;;;;;;;;
2021/07/08 08:28:46;;;;;;;4.93;1.40;;;19.90;99.90;;;;;;4805063;29;20169;-90
2021/07/08 08:32:32;;;;;;;4.68;1.52;;;20.10;99.90;;;;;;4788983;30;20047;-90
2021/07/08 08:35:53;;;;;;;1.23;1.13;;;20.50;99.90;;;;;;4779232;30;20055;-89
2021/07/08 08:39:19;;;;;;;2.90;1.25;;;20.90;99.90;;;;;;4813553;29;20064;-89
2021/07/08 08:42:12;;;;;;;1.63;1.00;;;20.90;99.90;;;;;;4832894;29;20066;-89
2021/07/08 08:45:20;;;;;;;2.42;1.20;;;21.00;99.90;;;;;;4852695;29;20029;-90
2021/07/08 08:48:18;;;;;;;5.25;1.40;;;21.30;99.90;;;;;;4861974;29;20045;-89
2021/07/08 08:55:19;;;;;;;5.65;2.45;;;20.90;99.90;;;;;;4863787;29;20117;-90
2021/07/08 08:58:37;;;;;;;3.28;2.55;;;20.60;99.90;;;;;;4849095;29;20476;-88
2021/07/08 09:01:24;;;;;;;5.57;1.95;;;20.20;99.90;;;;;;4856677;29;20371;-87
2021/07/08 09:04:34;;;;;;;6.10;1.75;;;20.20;99.90;;;;;;4841972;29;20053;-86
2021/07/08 09:07:35;;;;;;;2.10;1.83;;;20.10;99.90;;;;;;4851179;29;20080;-85
2021/07/08 09:10:23;;;;;;;6.07;2.67;;;20.10;99.90;;;;;;4843126;29;20132;-87
2021/07/08 09:13:14;;;;;;;4.90;2.53;;;20.00;99.90;;;;;;4857686;29;20041;-87
2021/07/08 09:16:12;;;;;;;3.13;2.03;;;20.00;99.90;;;;;;4845993;29;20058;-87
2021/07/08 09:19:10;;;;;;;3.85;2.00;;;19.70;99.90;;;;;;4842943;29;20490;-86
2021/07/08 09:22:02;;;;;;;2.10;1.90;;;19.60;99.90;;;;;;4854997;29;20069;-87
2021/07/08 09:24:53;;;;;;;5.30;2.17;;;19.60;99.90;;;;;;4857170;29;20194;-89
2021/07/08 09:28:19;;;;;;;2.47;2.10;;;19.70;99.90;;;;;;4828975;29;20082;-89
2021/07/08 09:31:30;;;;;;;3.67;2.38;;;19.80;99.90;;;;;;4839239;29;20062;-89
2021/07/08 09:38:33;;;;;;;;;;;;;;;;;;;;;
2021/07/08 09:41:52;;;;;;;2.22;2.03;;;20.00;99.90;;;;;;4832876;29;20046;-87
2021/07/08 09:44:47;;;;;;;1.95;1.85;;;20.10;99.90;;;;;;4828824;29;20126;-86
2021/07/08 09:47:46;;;;;;;2.13;1.65;;;20.20;99.90;;;;;;4848181;29;20436;-87
2021/07/08 09:50:38;;;;;;;3.50;1.80;;;20.30;99.90;;;;;;4849022;29;20053;-86
2021/07/08 09:53:29;;;;;;;2.38;1.50;;;20.40;99.90;;;;;;4845651;29;20145;-87
2021/07/08 09:59:06;;;;;;;2.10;1.90;;;20.50;99.90;;;;;;4859112;29;20085;-86
2021/07/08 10:01:57;;;;;;;1.80;1.70;;;20.70;99.90;;;;;;4859313;29;20053;-86
2021/07/08 10:04:47;;;;;;;2.45;1.88;;;20.90;99.90;;;;;;4857834;29;20056;-88
2021/07/08 10:07:38;;;;;;;4.70;1.73;;;21.00;99.90;;;;;;4864283;29;20053;-87
2021/07/08 10:10:29;;;;;;;2.50;2.22;;;21.10;99.90;;;;;;4845711;29;20045;-88
2021/07/08 10:13:19;;;;;;;2.20;1.90;;;21.00;99.90;;;;;;4847475;29;20049;-89
2021/07/08 10:16:14;;;;;;;2.08;1.98;;;21.20;99.90;;;;;;4862866;29;20050;-89
2021/07/08 10:19:04;;;;;;;4.05;1.80;;;21.10;99.90;;;;;;4860828;29;20140;-86
2021/07/08 10:21:53;;;;;;;4.60;1.55;;;21.20;99.90;;;;;;4851738;29;20109;-87
2021/07/08 10:24:41;;;;;;;1.63;1.52;;;21.40;99.90;;;;;;4860919;29;20053;-87
2021/07/08 10:27:29;;;;;;;1.65;1.55;;;21.70;99.90;;;;;;4861030;29;20086;-88
2021/07/08 10:30:22;;;;;;;3.35;1.70;;;21.90;99.90;;;;;;4859107;29;20045;-86
2021/07/08 10:33:13;;;;;;;1.73;1.63;;;22.00;99.90;;;;;;4870164;29;20122;-86
2021/07/08 10:36:00;;;;;;;2.70;2.20;;;21.80;99.90;;;;;;4871727;29;20136;-86
2021/07/08 10:38:49;;;;;;;2.50;1.83;;;21.70;99.90;;;;;;4854687;29;20061;-87
2021/07/08 10:41:36;;;;;;;2.50;1.60;;;21.70;99.90;;;;;;4859163;29;20133;-89
2021/07/08 10:44:46;;;;;;;3.45;1.75;;;21.70;99.90;;;;;;4857813;29;20072;-88
2021/07/08 10:47:39;;;;;;;3.42;1.63;;;21.80;99.90;;;;;;4844966;29;20060;-88
2021/07/08 10:50:42;;;;;;;1.95;1.80;;;21.70;99.90;;;;;;4837955;29;20057;-88
2021/07/08 10:53:42;;;;;;;2.40;1.73;;;21.70;99.90;;;;;;4850904;29;20175;-88
2021/07/08 10:56:33;;;;;;;3.58;1.67;;;21.60;99.90;;;;;;4869029;29;20046;-86
2021/07/08 10:59:20;;;;;;;2.10;1.90;;;21.20;99.90;;;;;;4849778;29;20077;-87
2021/07/08 11:19:01;;;;;;;;;;;;;;;;;;;;;
2021/07/08 11:21:58;;;;;;;2.20;2.10;;;21.00;99.90;;;;;;4860719;29;20049;-90
2021/07/08 11:25:08;;;;;;;2.78;2.28;;;21.10;99.90;;;;;;4843172;29;20053;-91
2021/07/08 11:28:56;;;;;;;6.35;1.90;;;21.20;99.90;;;;;;4848754;29;20125;-91
2021/07/08 11:32:07;;;;;;;2.17;1.83;;;21.20;99.90;;;;;;4844002;29;20050;-90
2021/07/08 11:39:42;;;;;;;2.13;2.00;;;20.90;99.90;;;;;;4900777;29;20060;-91
2021/07/08 11:42:55;;;;;;;3.38;2.05;;;20.80;99.90;;;;;;4865547;29;20430;-90
2021/07/08 11:46:03;;;;;;;;;;;20.70;99.90;;;;;;4892756;29;20417;-88
2021/07/08 11:49:07;;;;;;;2.40;2.20;;;20.40;99.90;;;;;;4928183;29;19926;-90
2021/07/08 11:56:57;;;;;;;;;;;;;;;;;;;;;
2021/07/08 12:00:42;;;;;;;2.80;1.95;;;20.20;99.90;;;;;;4917024;29;20048;-89
2021/07/08 12:04:49;;;;;;;;;;;;;;;;;;;;;
2021/07/08 12:07:53;;;;;;;;;;;;;;;;;;;;;
2021/07/08 12:10:48;;;;;;;5.10;1.70;;;21.90;99.90;;;;;;4857190;29;20061;-89
2021/07/08 12:13:47;;;;;;;1.70;1.60;;;21.90;99.90;;;;;;4852247;29;20072;-89
2021/07/08 12:16:46;;;;;;;;;;;;;;;;;;;;;
2021/07/08 12:19:40;;;;;;;2.97;1.67;;;22.40;99.90;;;;;;4872584;29;20061;-89
2021/07/08 12:23:08;;;;;;;3.10;1.17;;;22.30;99.90;;;;;;4902361;29;20053;-89
2021/07/08 12:26:18;;;;;;;1.52;1.30;;;22.50;99.90;;;;;;4907393;29;21782;-89
2021/07/08 12:29:38;;;;;;;;;;;;;;;;;;;;;
2021/07/08 12:32:35;;;;;;;3.47;1.42;;;22.80;99.90;;;;;;4903271;29;20144;-89
2021/07/08 12:35:24;;;;;;;1.75;1.30;;;22.80;99.90;;;;;;4913407;29;20044;-87
2021/07/08 12:38:13;;;;;;;1.02;0.88;;;23.00;99.90;;;;;;4888191;29;20720;-87
2021/07/08 12:41:05;;;;;;;2.55;1.10;;;23.10;99.90;;;;;;4937573;28;20067;-89
2021/07/08 12:43:59;;;;;;;1.10;1.00;;;23.20;99.90;;;;;;4936432;29;20671;-88
2021/07/08 12:47:04;;;;;;;1.27;0.90;;;23.30;99.90;;;;;;4939157;29;20154;-89
2021/07/08 12:50:27;;;;;;;1.00;0.80;;;23.20;99.90;;;;;;4929807;29;20075;-87
2021/07/08 12:53:28;;;;;;;0.82;0.82;;;23.00;99.90;;;;;;4940553;29;20035;-89
2021/07/08 12:56:28;;;;;;;;;;;;;;;;;;;;;
2021/07/08 12:59:55;;;;;;;0.95;0.95;;;23.10;99.90;;;;;;4937982;29;20060;-90
2021/07/08 13:02:52;;;;;;;3.35;1.40;;;23.20;99.90;;;;;;4941078;29;20055;-90
2021/07/08 13:05:41;;;;;;;3.33;1.20;;;22.90;99.90;;;;;;4939239;29;20154;-87
2021/07/08 13:08:30;;;;;;;2.15;1.30;;;22.60;99.90;;;;;;4952598;29;20098;-86
2021/07/08 13:11:22;;;;;;;1.92;1.20;;;22.30;99.90;;;;;;4948781;29;20071;-87
2021/07/08 13:14:27;;;;;;;1.92;1.30;;;22.10;99.90;;;;;;4946760;29;20051;-88
2021/07/08 13:17:19;;;;;;;2.30;1.60;;;21.70;99.90;;;;;;4938195;29;20117;-87
2021/07/08 13:20:09;;;;;;;3.67;1.35;;;21.30;99.90;;;;;;4954445;29;20102;-88
2021/07/08 13:23:09;;;;;;;3.05;1.50;;;20.80;99.90;;;;;;4953844;29;20123;-87
2021/07/08 13:26:12;;;;;;;6.03;2.17;;;20.30;99.90;;;;;;4953845;29;20059;-85
2021/07/08 13:29:06;;;;;;;5.05;2.35;;;19.90;99.90;;;;;;4966861;29;20043;-86
2021/07/08 13:31:53;;;;;;;2.00;1.88;;;19.50;99.90;;;;;;4944677;29;20048;-89
2021/07/08 13:34:47;;;;;;;3.92;2.50;;;19.20;99.90;;;;;;4939165;29;20063;-89
2021/07/08 13:37:42;;;;;;;6.15;2.33;;;18.90;99.90;;;;;;4936539;29;20063;-89
2021/07/08 13:40:30;;;;;;;6.63;2.40;;;18.80;99.90;;;;;;4945478;29;20051;-91
2021/07/08 13:43:22;;;;;;;2.42;2.22;;;18.90;99.90;;;;;;4928578;29;20063;-90
2021/07/08 13:46:22;;;;;;;3.58;2.65;;;18.90;99.90;;;;;;4938729;29;20525;-88
2021/07/08 13:49:21;;;;;;;3.17;2.05;;;19.00;99.90;;;;;;4927175;29;20131;-89
2021/07/08 13:52:15;;;;;;;5.40;2.03;;;19.20;99.90;;;;;;4943407;29;20051;-88
2021/07/08 13:55:05;;;;;;;3.30;2.00;;;19.80;99.90;;;;;;4929961;29;20068;-89
2021/07/08 13:57:52;;;;;;;1.98;1.30;;;20.90;99.90;;;;;;4951487;28;20043;-89
2021/07/08 14:00:44;;;;;;;1.70;1.35;;;22.00;99.90;;;;;;4950971;29;20048;-87
2021/07/08 14:03:31;;;;;;;1.42;1.30;;;22.90;99.90;;;;;;4954755;28;20122;-87
2021/07/08 14:06:24;;;;;;;3.20;1.33;;;23.90;99.90;;;;;;4932907;29;20044;-87
2021/07/08 14:09:14;;;;;;;3.60;1.40;;;24.60;99.90;;;;;;4948734;29;20480;-86
2021/07/08 14:12:06;;;;;;;2.63;1.35;;;24.50;99.90;;;;;;4941039;29;20133;-88
2021/07/08 14:14:54;;;;;;;3.88;1.20;;;24.80;99.90;;;;;;4944035;28;20059;-86
2021/07/08 14:17:43;;;;;;;4.47;1.20;;;24.70;99.90;;;;;;4949514;29;20082;-87
2021/07/08 14:20:31;;;;;;;3.55;1.40;;;24.40;99.90;;;;;;4946891;29;20051;-86
2021/07/08 14:23:20;;;;;;;2.78;1.05;;;23.50;99.90;;;;;;4942208;29;20075;-87
2021/07/08 14:26:10;;;;;;;3.75;1.40;;;23.10;99.90;;;;;;4952233;29;20058;-87
2021/07/08 14:29:01;;;;;;;2.38;1.10;;;23.10;99.90;;;;;;4950458;28;20051;-87
2021/07/08 14:31:53;;;;;;;1.67;1.15;;;24.10;99.90;;;;;;4962067;29;20128;-85
2021/07/08 14:34:49;;;;;;;2.58;1.40;;;24.40;99.90;;;;;;4953073;29;20150;-87
2021/07/08 14:37:38;;;;;;;1.50;1.20;;;24.00;99.90;;;;;;4944597;29;20072;-91
2021/07/08 14:40:28;;;;;;;2.17;1.48;;;23.40;99.90;;;;;;4961026;29;20055;-93
2021/07/08 14:43:34;;;;;;;2.28;1.63;;;22.70;99.90;;;;;;4950861;29;20040;-92
2021/07/08 14:46:25;;;;;;;3.25;1.73;;;21.90;99.90;;;;;;4948324;29;20103;-92
2021/07/08 14:49:13;;;;;;;2.42;1.58;;;21.40;99.90;;;;;;4948688;29;20044;-92
2021/07/08 14:52:01;;;;;;;1.70;1.52;;;21.10;99.90;;;;;;4954452;29;20043;-91
2021/07/08 14:54:48;;;;;;;1.88;1.58;;;21.40;99.90;;;;;;4949745;29;20051;-89
2021/07/08 14:57:35;;;;;;;1.67;1.58;;;21.80;99.90;;;;;;4944823;29;20441;-91
2021/07/08 15:00:27;;;;;;;1.70;1.60;;;22.20;99.90;;;;;;4948602;29;20066;-91
2021/07/08 15:03:16;;;;;;;2.33;1.23;;;22.70;99.90;;;;;;4949230;29;20137;-89
2021/07/08 15:06:07;;;;;;;1.23;1.13;;;23.20;99.90;;;;;;4938639;29;20063;-89
2021/07/08 15:08:56;;;;;;;1.55;1.30;;;24.60;99.90;;;;;;4939382;29;20449;-90
2021/07/08 15:11:46;;;;;;;1.77;1.40;;;25.20;99.90;;;;;;4932980;29;20050;-89
2021/07/08 15:14:34;;;;;;;3.42;1.40;;;25.00;99.90;;;;;;4933873;29;20048;-89
2021/07/08 15:17:22;;;;;;;2.35;1.35;;;24.10;99.90;;;;;;4935380;29;20050;-92
2021/07/08 15:20:09;;;;;;;2.75;1.30;;;23.20;99.90;;;;;;4940266;29;20079;-92
2021/07/08 15:23:04;;;;;;;1.90;1.70;;;22.40;99.90;;;;;;4940732;29;20136;-90
2021/07/08 15:25:59;;;;;;;2.92;1.90;;;21.80;99.90;;;;;;4925763;29;20052;-89
2021/07/08 15:28:46;;;;;;;3.15;2.15;;;21.10;99.90;;;;;;4943537;29;20375;-89
2021/07/08 15:31:37;;;;;;;2.03;1.90;;;20.50;99.90;;;;;;4940136;29;20074;-91
2021/07/08 15:34:56;;;;;;;2.47;2.28;;;20.00;99.90;;;;;;4921504;29;20058;-89
2021/07/08 15:37:44;;;;;;;2.10;1.90;;;19.60;99.90;;;;;;4935951;29;20075;-87
2021/07/08 15:40:31;;;;;;;2.58;2.10;;;19.30;99.90;;;;;;4938117;29;20040;-90
2021/07/08 15:43:21;;;;;;;3.40;2.55;;;19.20;99.90;;;;;;4943407;28;20442;-87
2021/07/08 15:46:08;;;;;;;4.13;2.45;;;19.10;99.90;;;;;;4932544;29;20474;-92
2021/07/08 15:48:59;;;;;;;10.00;3.15;;;19.10;99.90;;;;;;4934740;29;20493;-88
2021/07/08 15:51:50;;;;;;;4.43;3.83;;;19.20;99.90;;;;;;4934360;29;20600;-89
2021/07/08 15:54:41;;;;;;;3.95;3.65;;;19.20;99.90;;;;;;4924719;29;20048;-86
2021/07/08 15:57:28;;;;;;;4.13;3.80;;;19.20;99.90;;;;;;4936537;29;20071;-88
2021/07/08 16:00:19;;;;;;;3.80;3.45;;;19.20;99.90;;;;;;4917548;29;20043;-88
2021/07/08 16:03:07;;;;;;;5.30;3.70;;;19.20;99.90;;;;;;4941129;28;20123;-87
2021/07/08 16:05:54;;;;;;;4.93;3.75;;;19.20;99.90;;;;;;4937255;29;20097;-89
2021/07/08 16:08:43;;;;;;;4.07;3.60;;;19.20;99.90;;;;;;4933442;29;20059;-90
2021/07/08 16:11:31;;;;;;;3.83;3.45;;;19.30;99.90;;;;;;4944744;29;20067;-87
2021/07/08 16:14:19;;;;;;;6.05;3.40;;;19.40;99.90;;;;;;4937740;29;20058;-88
2021/07/08 16:17:07;;;;;;;3.78;3.35;;;19.30;99.90;;;;;;4937773;28;20051;-89
2021/07/08 16:19:54;;;;;;;3.80;3.50;;;19.30;99.90;;;;;;4928023;29;20187;-89
2021/07/08 16:22:42;;;;;;;3.35;3.15;;;19.30;99.90;;;;;;4931007;29;20095;-88
2021/07/08 16:25:30;;;;;;;3.22;2.50;;;19.40;99.90;;;;;;4926666;29;20107;-88
2021/07/08 16:28:17;;;;;;;5.50;2.83;;;19.50;99.90;;;;;;4944790;29;20052;-87
2021/07/08 16:31:05;;;;;;;3.08;2.88;;;19.40;99.90;;;;;;4950059;28;20454;-87
2021/07/08 16:33:54;;;;;;;2.58;2.28;;;19.30;99.90;;;;;;4945802;29;20103;-86
2021/07/08 16:36:42;;;;;;;2.75;2.55;;;19.10;99.90;;;;;;4943807;29;20655;-89
2021/07/08 16:39:31;;;;;;;2.83;2.40;;;18.90;99.90;;;;;;4949102;29;20051;-87
2021/07/08 16:42:18;;;;;;;2.95;2.65;;;18.80;99.90;;;;;;4936293;29;20491;-86
2021/07/08 16:45:08;;;;;;;4.95;2.35;;;18.60;99.90;;;;;;4937462;29;20482;-90
2021/07/08 16:47:59;;;;;;;4.40;2.90;;;18.60;99.90;;;;;;4931410;29;20059;-89
2021/07/08 16:50:46;;;;;;;2.35;2.20;;;18.50;99.90;;;;;;4940029;29;20137;-88
2021/07/08 16:53:34;;;;;;;2.88;2.40;;;18.40;99.90;;;;;;4926828;29;20508;-89
2021/07/08 16:56:21;;;;;;;3.28;2.70;;;18.40;99.90;;;;;;4932766;29;20506;-88
2021/07/08 16:59:09;;;;;;;3.38;2.65;;;18.30;99.90;;;;;;4942347;29;20142;-89